Terminal Aerodrome Forecast
Issued by NWS

Home | Current Version | Previous Version | Text Only | Print | Product List | Glossary On
Versions: 1 2 3 4 5 6 7 8 9 10 11 12 13 14 15 16 17 18 19 20 21 22 23 24
215
FTUS41 KOKX 311934 AAA
TAFHPN
TAF AMD
KHPN 311934Z 3120/0118 30006KT P6SM SCT050
     FM312100 18006KT P6SM FEW080
     FM010000 VRB03KT P6SM FEW080
     FM010900 02005KT P6SM BKN080
     FM011200 03004KT P6SM BKN250
     FM011600 11006KT P6SM BKN250
      AMD NOT SKED=

USA.gov is the U.S. government's official web portal to all federal, state and local government web resources and services.